sensor_id;sensor_type;location;lat;lon;timestamp;P1;durP1;ratioP1;P2;durP2;ratioP2
71148;SDS011;59072;42.144;25.200;2022-08-14T00:00:13;18.88;;;15.55;;
71148;SDS011;59072;42.144;25.200;2022-08-14T00:02:40;19.00;;;15.50;;
71148;SDS011;59072;42.144;25.200;2022-08-14T00:05:07;19.90;;;16.55;;
71148;SDS011;59072;42.144;25.200;2022-08-14T00:07:34;18.65;;;15.30;;
71148;SDS011;59072;42.144;25.200;2022-08-14T00:10:00;23.33;;;15.88;;
71148;SDS011;59072;42.144;25.200;2022-08-14T00:12:26;24.83;;;15.48;;
71148;SDS011;59072;42.144;25.200;2022-08-14T00:14:52;22.42;;;15.25;;
71148;SDS011;59072;42.144;25.200;2022-08-14T00:17:18;21.75;;;15.07;;
71148;SDS011;59072;42.144;25.200;2022-08-14T00:19:43;25.90;;;16.75;;
71148;SDS011;59072;42.144;25.200;2022-08-14T00:22:09;22.63;;;16.67;;
71148;SDS011;59072;42.144;25.200;2022-08-14T00:24:36;24.23;;;17.58;;
71148;SDS011;59072;42.144;25.200;2022-08-14T00:27:01;26.45;;;17.77;;
71148;SDS011;59072;42.144;25.200;2022-08-14T00:29:28;29.92;;;19.50;;
71148;SDS011;59072;42.144;25.200;2022-08-14T00:31:54;25.25;;;18.40;;
71148;SDS011;59072;42.144;25.200;2022-08-14T00:34:20;31.88;;;21.55;;
71148;SDS011;59072;42.144;25.200;2022-08-14T00:36:45;29.17;;;20.38;;
71148;SDS011;59072;42.144;25.200;2022-08-14T00:39:12;27.02;;;19.70;;
71148;SDS011;59072;42.144;25.200;2022-08-14T00:44:04;27.67;;;18.10;;
71148;SDS011;59072;42.144;25.200;2022-08-14T00:46:29;24.88;;;18.65;;
71148;SDS011;59072;42.144;25.200;2022-08-14T00:48:54;25.10;;;17.67;;
71148;SDS011;59072;42.144;25.200;2022-08-14T00:51:20;25.05;;;18.17;;
71148;SDS011;59072;42.144;25.200;2022-08-14T00:53:45;25.85;;;18.33;;
71148;SDS011;59072;42.144;25.200;2022-08-14T00:56:14;23.23;;;18.85;;
71148;SDS011;59072;42.144;25.200;2022-08-14T00:58:40;20.75;;;16.88;;
71148;SDS011;59072;42.144;25.200;2022-08-14T01:01:07;22.98;;;16.92;;
71148;SDS011;59072;42.144;25.200;2022-08-14T01:03:35;24.20;;;16.92;;
71148;SDS011;59072;42.144;25.200;2022-08-14T01:06:04;21.98;;;16.17;;
71148;SDS011;59072;42.144;25.200;2022-08-14T01:08:32;18.52;;;15.63;;
71148;SDS011;59072;42.144;25.200;2022-08-14T01:10:59;19.30;;;15.07;;
71148;SDS011;59072;42.144;25.200;2022-08-14T01:13:26;21.60;;;15.95;;
71148;SDS011;59072;42.144;25.200;2022-08-14T01:15:58;20.80;;;15.80;;
71148;SDS011;59072;42.144;25.200;2022-08-14T01:18:27;19.67;;;15.30;;
71148;SDS011;59072;42.144;25.200;2022-08-14T01:21:13;20.77;;;15.48;;
71148;SDS011;59072;42.144;25.200;2022-08-14T01:23:49;18.73;;;15.00;;
71148;SDS011;59072;42.144;25.200;2022-08-14T01:26:18;19.45;;;15.45;;
71148;SDS011;59072;42.144;25.200;2022-08-14T01:28:47;20.42;;;15.40;;
71148;SDS011;59072;42.144;25.200;2022-08-14T01:31:18;20.13;;;15.07;;
71148;SDS011;59072;42.144;25.200;2022-08-14T01:33:45;21.67;;;15.70;;
71148;SDS011;59072;42.144;25.200;2022-08-14T01:36:14;21.90;;;15.18;;
71148;SDS011;59072;42.144;25.200;2022-08-14T01:38:42;19.67;;;15.50;;
71148;SDS011;59072;42.144;25.200;2022-08-14T01:41:10;16.92;;;14.05;;
71148;SDS011;59072;42.144;25.200;2022-08-14T01:43:48;16.77;;;13.57;;
71148;SDS011;59072;42.144;25.200;2022-08-14T01:46:19;17.15;;;13.70;;
71148;SDS011;59072;42.144;25.200;2022-08-14T01:48:47;18.83;;;14.30;;
71148;SDS011;59072;42.144;25.200;2022-08-14T01:51:13;18.67;;;15.43;;
71148;SDS011;59072;42.144;25.200;2022-08-14T01:53:42;20.08;;;15.60;;
71148;SDS011;59072;42.144;25.200;2022-08-14T01:56:11;20.70;;;17.00;;
71148;SDS011;59072;42.144;25.200;2022-08-14T01:58:42;21.33;;;17.90;;
71148;SDS011;59072;42.144;25.200;2022-08-14T02:01:09;18.85;;;15.73;;
71148;SDS011;59072;42.144;25.200;2022-08-14T02:03:38;21.17;;;16.30;;
71148;SDS011;59072;42.144;25.200;2022-08-14T02:06:04;21.38;;;17.23;;
71148;SDS011;59072;42.144;25.200;2022-08-14T02:08:30;21.30;;;15.80;;
71148;SDS011;59072;42.144;25.200;2022-08-14T02:10:57;19.33;;;16.25;;
71148;SDS011;59072;42.144;25.200;2022-08-14T02:13:43;19.30;;;14.45;;
71148;SDS011;59072;42.144;25.200;2022-08-14T02:16:22;21.13;;;17.83;;
71148;SDS011;59072;42.144;25.200;2022-08-14T02:18:52;22.88;;;18.42;;
71148;SDS011;59072;42.144;25.200;2022-08-14T02:21:18;18.73;;;15.18;;
71148;SDS011;59072;42.144;25.200;2022-08-14T02:23:45;20.42;;;16.48;;
71148;SDS011;59072;42.144;25.200;2022-08-14T02:26:17;21.80;;;16.80;;
71148;SDS011;59072;42.144;25.200;2022-08-14T02:31:17;23.17;;;18.23;;
71148;SDS011;59072;42.144;25.200;2022-08-14T02:33:43;21.23;;;17.92;;
71148;SDS011;59072;42.144;25.200;2022-08-14T02:36:09;22.50;;;17.25;;
71148;SDS011;59072;42.144;25.200;2022-08-14T02:38:36;22.08;;;17.85;;
71148;SDS011;59072;42.144;25.200;2022-08-14T02:41:03;22.52;;;18.70;;
71148;SDS011;59072;42.144;25.200;2022-08-14T02:43:32;24.63;;;19.35;;
71148;SDS011;59072;42.144;25.200;2022-08-14T02:45:58;24.52;;;20.02;;
71148;SDS011;59072;42.144;25.200;2022-08-14T02:48:24;23.98;;;19.40;;
71148;SDS011;59072;42.144;25.200;2022-08-14T02:51:00;24.30;;;19.77;;
71148;SDS011;59072;42.144;25.200;2022-08-14T02:53:31;25.90;;;18.90;;
71148;SDS011;59072;42.144;25.200;2022-08-14T02:55:57;22.23;;;18.83;;
71148;SDS011;59072;42.144;25.200;2022-08-14T02:58:24;23.85;;;19.73;;
71148;SDS011;59072;42.144;25.200;2022-08-14T03:00:49;25.23;;;19.00;;
71148;SDS011;59072;42.144;25.200;2022-08-14T03:03:15;23.70;;;19.25;;
71148;SDS011;59072;42.144;25.200;2022-08-14T03:05:41;22.60;;;18.38;;
71148;SDS011;59072;42.144;25.200;2022-08-14T03:08:08;30.70;;;17.88;;
71148;SDS011;59072;42.144;25.200;2022-08-14T03:10:36;23.48;;;18.83;;
71148;SDS011;59072;42.144;25.200;2022-08-14T03:13:02;23.33;;;18.58;;
71148;SDS011;59072;42.144;25.200;2022-08-14T03:15:31;21.65;;;17.65;;
71148;SDS011;59072;42.144;25.200;2022-08-14T03:18:09;21.95;;;18.13;;
71148;SDS011;59072;42.144;25.200;2022-08-14T03:20:35;21.70;;;16.83;;
71148;SDS011;59072;42.144;25.200;2022-08-14T03:23:00;22.98;;;17.33;;
71148;SDS011;59072;42.144;25.200;2022-08-14T03:25:26;22.42;;;17.13;;
71148;SDS011;59072;42.144;25.200;2022-08-14T03:27:55;19.77;;;16.23;;
71148;SDS011;59072;42.144;25.200;2022-08-14T03:30:20;19.63;;;15.80;;
71148;SDS011;59072;42.144;25.200;2022-08-14T03:32:47;19.67;;;16.55;;
71148;SDS011;59072;42.144;25.200;2022-08-14T03:35:12;19.15;;;15.30;;
71148;SDS011;59072;42.144;25.200;2022-08-14T03:37:37;20.75;;;17.35;;
71148;SDS011;59072;42.144;25.200;2022-08-14T03:40:03;21.40;;;17.10;;
71148;SDS011;59072;42.144;25.200;2022-08-14T03:42:30;22.47;;;17.47;;
71148;SDS011;59072;42.144;25.200;2022-08-14T03:44:56;24.40;;;19.13;;
71148;SDS011;59072;42.144;25.200;2022-08-14T03:47:22;21.55;;;18.40;;
71148;SDS011;59072;42.144;25.200;2022-08-14T03:49:49;24.80;;;18.55;;
71148;SDS011;59072;42.144;25.200;2022-08-14T03:52:14;22.33;;;18.83;;
71148;SDS011;59072;42.144;25.200;2022-08-14T03:54:40;22.00;;;18.20;;
71148;SDS011;59072;42.144;25.200;2022-08-14T03:57:06;22.17;;;18.23;;
71148;SDS011;59072;42.144;25.200;2022-08-14T03:59:32;23.50;;;19.17;;
71148;SDS011;59072;42.144;25.200;2022-08-14T04:01:58;23.45;;;18.52;;
71148;SDS011;59072;42.144;25.200;2022-08-14T04:04:24;26.08;;;18.50;;
71148;SDS011;59072;42.144;25.200;2022-08-14T04:06:50;23.13;;;17.80;;
71148;SDS011;59072;42.144;25.200;2022-08-14T04:09:15;22.60;;;18.55;;
71148;SDS011;59072;42.144;25.200;2022-08-14T04:11:42;25.73;;;19.30;;
71148;SDS011;59072;42.144;25.200;2022-08-14T04:14:07;25.60;;;19.33;;
71148;SDS011;59072;42.144;25.200;2022-08-14T04:16:33;24.25;;;18.85;;
71148;SDS011;59072;42.144;25.200;2022-08-14T04:18:59;24.88;;;19.17;;
71148;SDS011;59072;42.144;25.200;2022-08-14T04:21:28;26.27;;;19.92;;
71148;SDS011;59072;42.144;25.200;2022-08-14T04:23:55;27.23;;;20.10;;
71148;SDS011;59072;42.144;25.200;2022-08-14T04:26:22;25.02;;;18.75;;
71148;SDS011;59072;42.144;25.200;2022-08-14T04:28:48;25.42;;;19.63;;
71148;SDS011;59072;42.144;25.200;2022-08-14T04:31:18;23.40;;;20.08;;
71148;SDS011;59072;42.144;25.200;2022-08-14T04:33:45;23.50;;;18.65;;
71148;SDS011;59072;42.144;25.200;2022-08-14T04:36:12;25.83;;;19.55;;
71148;SDS011;59072;42.144;25.200;2022-08-14T04:38:37;23.80;;;18.60;;
71148;SDS011;59072;42.144;25.200;2022-08-14T04:41:21;23.33;;;19.35;;
71148;SDS011;59072;42.144;25.200;2022-08-14T04:44:05;23.27;;;19.08;;
71148;SDS011;59072;42.144;25.200;2022-08-14T04:46:32;26.48;;;20.38;;
71148;SDS011;59072;42.144;25.200;2022-08-14T04:48:58;26.40;;;19.90;;
71148;SDS011;59072;42.144;25.200;2022-08-14T04:51:24;24.45;;;20.17;;
71148;SDS011;59072;42.144;25.200;2022-08-14T04:53:52;24.33;;;20.30;;
71148;SDS011;59072;42.144;25.200;2022-08-14T04:56:19;26.35;;;19.85;;
71148;SDS011;59072;42.144;25.200;2022-08-14T04:58:48;26.95;;;20.98;;
71148;SDS011;59072;42.144;25.200;2022-08-14T05:01:15;26.23;;;20.60;;
71148;SDS011;59072;42.144;25.200;2022-08-14T05:03:41;26.05;;;21.23;;
71148;SDS011;59072;42.144;25.200;2022-08-14T05:06:09;31.27;;;23.85;;
71148;SDS011;59072;42.144;25.200;2022-08-14T05:08:35;33.10;;;23.77;;
71148;SDS011;59072;42.144;25.200;2022-08-14T05:11:02;31.98;;;26.10;;
71148;SDS011;59072;42.144;25.200;2022-08-14T05:13:31;34.35;;;27.02;;
71148;SDS011;59072;42.144;25.200;2022-08-14T05:15:58;33.05;;;25.27;;
71148;SDS011;59072;42.144;25.200;2022-08-14T05:18:28;34.75;;;25.30;;
71148;SDS011;59072;42.144;25.200;2022-08-14T05:20:56;32.83;;;24.52;;
71148;SDS011;59072;42.144;25.200;2022-08-14T05:23:24;31.02;;;22.90;;
71148;SDS011;59072;42.144;25.200;2022-08-14T05:25:53;30.10;;;23.05;;
71148;SDS011;59072;42.144;25.200;2022-08-14T05:28:23;30.58;;;22.92;;
71148;SDS011;59072;42.144;25.200;2022-08-14T05:30:51;28.27;;;22.23;;
71148;SDS011;59072;42.144;25.200;2022-08-14T05:33:19;25.27;;;20.90;;
71148;SDS011;59072;42.144;25.200;2022-08-14T05:35:48;24.10;;;20.13;;
71148;SDS011;59072;42.144;25.200;2022-08-14T05:38:15;26.75;;;21.17;;
71148;SDS011;59072;42.144;25.200;2022-08-14T05:43:08;26.02;;;19.85;;
71148;SDS011;59072;42.144;25.200;2022-08-14T05:45:34;30.65;;;25.90;;
71148;SDS011;59072;42.144;25.200;2022-08-14T05:48:03;26.45;;;22.33;;
71148;SDS011;59072;42.144;25.200;2022-08-14T05:50:29;26.92;;;22.17;;
71148;SDS011;59072;42.144;25.200;2022-08-14T05:52:55;26.52;;;20.40;;
71148;SDS011;59072;42.144;25.200;2022-08-14T05:55:21;24.83;;;19.65;;
71148;SDS011;59072;42.144;25.200;2022-08-14T06:00:21;24.55;;;21.58;;
71148;SDS011;59072;42.144;25.200;2022-08-14T06:02:49;25.08;;;20.67;;
71148;SDS011;59072;42.144;25.200;2022-08-14T06:05:14;26.48;;;21.90;;
71148;SDS011;59072;42.144;25.200;2022-08-14T06:07:40;26.85;;;22.40;;
71148;SDS011;59072;42.144;25.200;2022-08-14T06:10:06;26.48;;;21.60;;
71148;SDS011;59072;42.144;25.200;2022-08-14T06:12:34;28.88;;;25.63;;
71148;SDS011;59072;42.144;25.200;2022-08-14T06:14:59;29.33;;;25.02;;
71148;SDS011;59072;42.144;25.200;2022-08-14T06:17:25;41.63;;;36.47;;
71148;SDS011;59072;42.144;25.200;2022-08-14T06:19:51;25.75;;;21.23;;
71148;SDS011;59072;42.144;25.200;2022-08-14T06:22:17;30.25;;;24.90;;
71148;SDS011;59072;42.144;25.200;2022-08-14T06:24:43;49.85;;;45.13;;
71148;SDS011;59072;42.144;25.200;2022-08-14T06:27:08;44.45;;;39.88;;
71148;SDS011;59072;42.144;25.200;2022-08-14T06:29:35;25.83;;;23.10;;
71148;SDS011;59072;42.144;25.200;2022-08-14T06:32:02;30.88;;;25.42;;
71148;SDS011;59072;42.144;25.200;2022-08-14T06:34:29;25.00;;;21.13;;
71148;SDS011;59072;42.144;25.200;2022-08-14T06:36:55;23.58;;;19.42;;
71148;SDS011;59072;42.144;25.200;2022-08-14T06:39:23;24.50;;;19.92;;
71148;SDS011;59072;42.144;25.200;2022-08-14T06:41:49;19.30;;;17.13;;
71148;SDS011;59072;42.144;25.200;2022-08-14T06:44:15;20.10;;;16.38;;
71148;SDS011;59072;42.144;25.200;2022-08-14T06:46:40;20.55;;;17.08;;
71148;SDS011;59072;42.144;25.200;2022-08-14T06:49:06;20.92;;;15.82;;
71148;SDS011;59072;42.144;25.200;2022-08-14T06:51:31;18.67;;;14.25;;
71148;SDS011;59072;42.144;25.200;2022-08-14T06:53:57;18.38;;;15.98;;
71148;SDS011;59072;42.144;25.200;2022-08-14T06:56:22;19.27;;;14.90;;
71148;SDS011;59072;42.144;25.200;2022-08-14T06:58:48;16.70;;;13.68;;
71148;SDS011;59072;42.144;25.200;2022-08-14T07:01:14;19.60;;;14.13;;
71148;SDS011;59072;42.144;25.200;2022-08-14T07:03:58;18.52;;;13.00;;
71148;SDS011;59072;42.144;25.200;2022-08-14T07:06:42;17.50;;;14.02;;
71148;SDS011;59072;42.144;25.200;2022-08-14T07:09:10;16.42;;;12.52;;
71148;SDS011;59072;42.144;25.200;2022-08-14T07:11:36;14.15;;;11.07;;
71148;SDS011;59072;42.144;25.200;2022-08-14T07:14:02;13.77;;;11.57;;
71148;SDS011;59072;42.144;25.200;2022-08-14T07:16:29;14.63;;;11.32;;
71148;SDS011;59072;42.144;25.200;2022-08-14T07:18:54;14.55;;;11.13;;
71148;SDS011;59072;42.144;25.200;2022-08-14T07:21:20;15.93;;;12.10;;
71148;SDS011;59072;42.144;25.200;2022-08-14T07:23:45;13.45;;;10.68;;
71148;SDS011;59072;42.144;25.200;2022-08-14T07:26:11;15.75;;;12.35;;
71148;SDS011;59072;42.144;25.200;2022-08-14T07:28:38;12.70;;;10.38;;
71148;SDS011;59072;42.144;25.200;2022-08-14T07:31:05;13.90;;;10.88;;
71148;SDS011;59072;42.144;25.200;2022-08-14T07:33:37;14.05;;;11.05;;
71148;SDS011;59072;42.144;25.200;2022-08-14T07:36:04;14.77;;;11.60;;
71148;SDS011;59072;42.144;25.200;2022-08-14T07:38:31;15.88;;;11.57;;
71148;SDS011;59072;42.144;25.200;2022-08-14T07:40:57;13.82;;;10.40;;
71148;SDS011;59072;42.144;25.200;2022-08-14T07:43:24;13.73;;;9.95;;
71148;SDS011;59072;42.144;25.200;2022-08-14T07:45:49;12.68;;;10.10;;
71148;SDS011;59072;42.144;25.200;2022-08-14T07:48:16;15.27;;;11.55;;
71148;SDS011;59072;42.144;25.200;2022-08-14T07:50:42;14.18;;;11.57;;
71148;SDS011;59072;42.144;25.200;2022-08-14T07:53:07;16.00;;;11.98;;
71148;SDS011;59072;42.144;25.200;2022-08-14T07:55:33;15.68;;;12.25;;
71148;SDS011;59072;42.144;25.200;2022-08-14T07:57:59;15.90;;;12.93;;
71148;SDS011;59072;42.144;25.200;2022-08-14T08:00:25;15.35;;;12.10;;
71148;SDS011;59072;42.144;25.200;2022-08-14T08:02:53;14.48;;;12.00;;
71148;SDS011;59072;42.144;25.200;2022-08-14T08:05:20;13.30;;;11.00;;
71148;SDS011;59072;42.144;25.200;2022-08-14T08:07:51;14.23;;;9.65;;
71148;SDS011;59072;42.144;25.200;2022-08-14T08:10:22;13.15;;;10.07;;
71148;SDS011;59072;42.144;25.200;2022-08-14T08:12:57;13.88;;;10.40;;
71148;SDS011;59072;42.144;25.200;2022-08-14T08:15:24;11.82;;;9.65;;
71148;SDS011;59072;42.144;25.200;2022-08-14T08:17:51;11.25;;;8.93;;
71148;SDS011;59072;42.144;25.200;2022-08-14T08:20:18;11.90;;;10.13;;
71148;SDS011;59072;42.144;25.200;2022-08-14T08:22:47;12.15;;;9.60;;
71148;SDS011;59072;42.144;25.200;2022-08-14T08:25:15;13.60;;;9.18;;
71148;SDS011;59072;42.144;25.200;2022-08-14T08:27:41;15.75;;;10.93;;
71148;SDS011;59072;42.144;25.200;2022-08-14T08:30:08;14.88;;;10.60;;
71148;SDS011;59072;42.144;25.200;2022-08-14T08:32:41;13.45;;;9.80;;
71148;SDS011;59072;42.144;25.200;2022-08-14T08:38:06;14.65;;;10.45;;
71148;SDS011;59072;42.144;25.200;2022-08-14T08:40:34;13.70;;;10.00;;
71148;SDS011;59072;42.144;25.200;2022-08-14T08:43:02;14.27;;;11.32;;
71148;SDS011;59072;42.144;25.200;2022-08-14T08:45:30;12.68;;;9.57;;
71148;SDS011;59072;42.144;25.200;2022-08-14T08:47:57;15.70;;;11.88;;
71148;SDS011;59072;42.144;25.200;2022-08-14T08:50:23;13.50;;;10.23;;
71148;SDS011;59072;42.144;25.200;2022-08-14T08:52:54;14.82;;;11.20;;
71148;SDS011;59072;42.144;25.200;2022-08-14T08:55:30;15.32;;;10.05;;
71148;SDS011;59072;42.144;25.200;2022-08-14T08:58:04;15.48;;;12.02;;
71148;SDS011;59072;42.144;25.200;2022-08-14T09:00:35;14.32;;;10.43;;
71148;SDS011;59072;42.144;25.200;2022-08-14T09:05:35;12.35;;;10.05;;
71148;SDS011;59072;42.144;25.200;2022-08-14T09:08:13;13.32;;;10.35;;
71148;SDS011;59072;42.144;25.200;2022-08-14T09:10:41;13.80;;;10.23;;
71148;SDS011;59072;42.144;25.200;2022-08-14T09:13:07;12.82;;;10.10;;
71148;SDS011;59072;42.144;25.200;2022-08-14T09:15:46;13.27;;;9.82;;
71148;SDS011;59072;42.144;25.200;2022-08-14T09:18:14;13.95;;;10.82;;
71148;SDS011;59072;42.144;25.200;2022-08-14T09:20:43;11.82;;;9.38;;
71148;SDS011;59072;42.144;25.200;2022-08-14T09:23:11;14.02;;;9.95;;
71148;SDS011;59072;42.144;25.200;2022-08-14T09:25:38;14.13;;;10.45;;
71148;SDS011;59072;42.144;25.200;2022-08-14T09:28:08;16.10;;;11.50;;
71148;SDS011;59072;42.144;25.200;2022-08-14T09:30:35;14.95;;;11.10;;
71148;SDS011;59072;42.144;25.200;2022-08-14T09:38:21;12.57;;;9.27;;
71148;SDS011;59072;42.144;25.200;2022-08-14T09:41:09;11.48;;;9.20;;
71148;SDS011;59072;42.144;25.200;2022-08-14T09:43:58;9.73;;;7.32;;
71148;SDS011;59072;42.144;25.200;2022-08-14T09:46:34;12.48;;;9.02;;
71148;SDS011;59072;42.144;25.200;2022-08-14T09:49:01;11.05;;;7.57;;
71148;SDS011;59072;42.144;25.200;2022-08-14T09:51:29;12.23;;;8.55;;
71148;SDS011;59072;42.144;25.200;2022-08-14T09:54:05;13.63;;;8.75;;
71148;SDS011;59072;42.144;25.200;2022-08-14T09:56:46;14.13;;;9.45;;
71148;SDS011;59072;42.144;25.200;2022-08-14T09:59:14;15.23;;;8.90;;
71148;SDS011;59072;42.144;25.200;2022-08-14T10:01:46;11.30;;;9.35;;
71148;SDS011;59072;42.144;25.200;2022-08-14T10:04:17;12.57;;;9.50;;
71148;SDS011;59072;42.144;25.200;2022-08-14T10:06:46;12.95;;;9.40;;
71148;SDS011;59072;42.144;25.200;2022-08-14T10:09:11;11.50;;;8.85;;
71148;SDS011;59072;42.144;25.200;2022-08-14T10:11:39;12.82;;;8.65;;
71148;SDS011;59072;42.144;25.200;2022-08-14T10:14:13;9.25;;;7.45;;
71148;SDS011;59072;42.144;25.200;2022-08-14T10:16:42;11.75;;;8.43;;
71148;SDS011;59072;42.144;25.200;2022-08-14T10:19:10;11.38;;;8.43;;
71148;SDS011;59072;42.144;25.200;2022-08-14T10:21:39;10.68;;;8.43;;
71148;SDS011;59072;42.144;25.200;2022-08-14T10:24:10;12.88;;;7.97;;
71148;SDS011;59072;42.144;25.200;2022-08-14T10:27:00;9.93;;;7.80;;
71148;SDS011;59072;42.144;25.200;2022-08-14T10:29:36;12.70;;;9.32;;
71148;SDS011;59072;42.144;25.200;2022-08-14T10:34:34;10.18;;;7.63;;
71148;SDS011;59072;42.144;25.200;2022-08-14T10:37:10;12.60;;;9.55;;
71148;SDS011;59072;42.144;25.200;2022-08-14T10:39:39;10.65;;;7.75;;
71148;SDS011;59072;42.144;25.200;2022-08-14T10:42:13;9.75;;;8.27;;
71148;SDS011;59072;42.144;25.200;2022-08-14T10:44:43;11.77;;;7.50;;
71148;SDS011;59072;42.144;25.200;2022-08-14T10:47:11;13.32;;;9.35;;
71148;SDS011;59072;42.144;25.200;2022-08-14T10:49:39;11.40;;;9.07;;
71148;SDS011;59072;42.144;25.200;2022-08-14T10:52:24;11.48;;;8.45;;
71148;SDS011;59072;42.144;25.200;2022-08-14T10:57:33;12.30;;;9.87;;
71148;SDS011;59072;42.144;25.200;2022-08-14T11:00:01;12.55;;;9.10;;
71148;SDS011;59072;42.144;25.200;2022-08-14T11:05:14;15.68;;;10.27;;
71148;SDS011;59072;42.144;25.200;2022-08-14T11:10:20;13.57;;;10.32;;
71148;SDS011;59072;42.144;25.200;2022-08-14T11:12:50;12.23;;;9.93;;
71148;SDS011;59072;42.144;25.200;2022-08-14T11:15:21;13.57;;;10.55;;
71148;SDS011;59072;42.144;25.200;2022-08-14T11:17:48;12.52;;;10.43;;
71148;SDS011;59072;42.144;25.200;2022-08-14T11:20:16;13.83;;;11.30;;
71148;SDS011;59072;42.144;25.200;2022-08-14T11:22:44;13.82;;;10.65;;
71148;SDS011;59072;42.144;25.200;2022-08-14T11:25:10;14.60;;;10.43;;
71148;SDS011;59072;42.144;25.200;2022-08-14T11:27:42;13.55;;;10.27;;
71148;SDS011;59072;42.144;25.200;2022-08-14T11:30:10;13.80;;;10.73;;
71148;SDS011;59072;42.144;25.200;2022-08-14T11:32:45;12.90;;;10.52;;
71148;SDS011;59072;42.144;25.200;2022-08-14T11:35:18;12.45;;;8.95;;
71148;SDS011;59072;42.144;25.200;2022-08-14T11:37:58;12.43;;;9.43;;
71148;SDS011;59072;42.144;25.200;2022-08-14T11:40:27;16.02;;;10.57;;
71148;SDS011;59072;42.144;25.200;2022-08-14T11:42:54;12.52;;;9.50;;
71148;SDS011;59072;42.144;25.200;2022-08-14T11:45:24;12.85;;;10.15;;
71148;SDS011;59072;42.144;25.200;2022-08-14T11:47:53;13.07;;;9.13;;
71148;SDS011;59072;42.144;25.200;2022-08-14T11:50:24;13.13;;;10.52;;
71148;SDS011;59072;42.144;25.200;2022-08-14T11:52:54;13.82;;;9.90;;
71148;SDS011;59072;42.144;25.200;2022-08-14T11:55:22;13.43;;;9.50;;
71148;SDS011;59072;42.144;25.200;2022-08-14T11:57:57;14.68;;;10.60;;
71148;SDS011;59072;42.144;25.200;2022-08-14T12:00:26;12.40;;;9.40;;
71148;SDS011;59072;42.144;25.200;2022-08-14T12:02:53;12.65;;;9.57;;
71148;SDS011;59072;42.144;25.200;2022-08-14T12:08:04;13.27;;;10.15;;
71148;SDS011;59072;42.144;25.200;2022-08-14T12:10:34;13.55;;;10.15;;
71148;SDS011;59072;42.144;25.200;2022-08-14T12:13:14;14.90;;;11.82;;
71148;SDS011;59072;42.144;25.200;2022-08-14T12:15:46;14.90;;;12.20;;
71148;SDS011;59072;42.144;25.200;2022-08-14T12:18:28;16.02;;;12.20;;
71148;SDS011;59072;42.144;25.200;2022-08-14T12:21:08;18.80;;;12.15;;
71148;SDS011;59072;42.144;25.200;2022-08-14T12:24:00;17.10;;;13.07;;
71148;SDS011;59072;42.144;25.200;2022-08-14T12:26:26;18.80;;;12.73;;
71148;SDS011;59072;42.144;25.200;2022-08-14T12:29:03;17.02;;;13.43;;
71148;SDS011;59072;42.144;25.200;2022-08-14T12:31:37;15.50;;;11.77;;
71148;SDS011;59072;42.144;25.200;2022-08-14T12:34:06;15.45;;;13.30;;
71148;SDS011;59072;42.144;25.200;2022-08-14T12:36:33;18.95;;;14.32;;
71148;SDS011;59072;42.144;25.200;2022-08-14T12:39:00;18.73;;;13.93;;
71148;SDS011;59072;42.144;25.200;2022-08-14T12:41:29;16.92;;;12.75;;
71148;SDS011;59072;42.144;25.200;2022-08-14T12:43:59;18.27;;;12.90;;
71148;SDS011;59072;42.144;25.200;2022-08-14T12:48:58;17.20;;;13.15;;
71148;SDS011;59072;42.144;25.200;2022-08-14T12:51:31;16.98;;;13.05;;
71148;SDS011;59072;42.144;25.200;2022-08-14T12:53:57;17.67;;;12.70;;
71148;SDS011;59072;42.144;25.200;2022-08-14T12:56:24;15.18;;;10.73;;
71148;SDS011;59072;42.144;25.200;2022-08-14T12:58:52;15.60;;;11.90;;
71148;SDS011;59072;42.144;25.200;2022-08-14T13:01:20;16.83;;;13.10;;
71148;SDS011;59072;42.144;25.200;2022-08-14T13:03:48;16.77;;;12.57;;
71148;SDS011;59072;42.144;25.200;2022-08-14T13:06:14;16.05;;;12.95;;
71148;SDS011;59072;42.144;25.200;2022-08-14T13:08:41;16.20;;;12.75;;
71148;SDS011;59072;42.144;25.200;2022-08-14T13:11:11;17.15;;;13.13;;
71148;SDS011;59072;42.144;25.200;2022-08-14T13:13:38;19.05;;;13.85;;
71148;SDS011;59072;42.144;25.200;2022-08-14T13:16:07;17.85;;;13.82;;
71148;SDS011;59072;42.144;25.200;2022-08-14T13:18:33;16.75;;;13.57;;
71148;SDS011;59072;42.144;25.200;2022-08-14T13:21:02;18.98;;;13.60;;
71148;SDS011;59072;42.144;25.200;2022-08-14T13:23:33;17.47;;;14.03;;
71148;SDS011;59072;42.144;25.200;2022-08-14T13:25:59;19.60;;;15.82;;
71148;SDS011;59072;42.144;25.200;2022-08-14T13:28:25;17.05;;;12.10;;
71148;SDS011;59072;42.144;25.200;2022-08-14T13:30:51;22.70;;;16.08;;
71148;SDS011;59072;42.144;25.200;2022-08-14T13:33:17;19.38;;;14.40;;
71148;SDS011;59072;42.144;25.200;2022-08-14T13:35:47;17.38;;;13.75;;
71148;SDS011;59072;42.144;25.200;2022-08-14T13:38:19;18.00;;;13.27;;
71148;SDS011;59072;42.144;25.200;2022-08-14T13:40:49;19.55;;;14.93;;
71148;SDS011;59072;42.144;25.200;2022-08-14T13:43:20;19.00;;;14.13;;
71148;SDS011;59072;42.144;25.200;2022-08-14T13:45:48;17.98;;;14.30;;
71148;SDS011;59072;42.144;25.200;2022-08-14T13:48:14;17.75;;;13.57;;
71148;SDS011;59072;42.144;25.200;2022-08-14T13:50:40;17.20;;;13.60;;
71148;SDS011;59072;42.144;25.200;2022-08-14T13:53:10;17.65;;;13.55;;
71148;SDS011;59072;42.144;25.200;2022-08-14T13:55:39;23.50;;;14.23;;
71148;SDS011;59072;42.144;25.200;2022-08-14T13:58:06;17.05;;;11.23;;
71148;SDS011;59072;42.144;25.200;2022-08-14T14:00:34;18.00;;;12.80;;
71148;SDS011;59072;42.144;25.200;2022-08-14T14:03:03;15.50;;;11.05;;
71148;SDS011;59072;42.144;25.200;2022-08-14T14:05:33;17.50;;;10.50;;
71148;SDS011;59072;42.144;25.200;2022-08-14T14:08:01;19.05;;;13.52;;
71148;SDS011;59072;42.144;25.200;2022-08-14T14:10:29;18.80;;;12.80;;
71148;SDS011;59072;42.144;25.200;2022-08-14T14:12:59;17.13;;;12.50;;
71148;SDS011;59072;42.144;25.200;2022-08-14T14:15:26;18.83;;;12.98;;
71148;SDS011;59072;42.144;25.200;2022-08-14T14:17:51;17.90;;;13.60;;
71148;SDS011;59072;42.144;25.200;2022-08-14T14:20:18;16.52;;;13.75;;
71148;SDS011;59072;42.144;25.200;2022-08-14T14:22:49;18.35;;;13.05;;
71148;SDS011;59072;42.144;25.200;2022-08-14T14:25:15;21.58;;;14.63;;
71148;SDS011;59072;42.144;25.200;2022-08-14T14:27:43;17.75;;;13.65;;
71148;SDS011;59072;42.144;25.200;2022-08-14T14:30:11;20.75;;;13.82;;
71148;SDS011;59072;42.144;25.200;2022-08-14T14:32:39;18.52;;;13.23;;
71148;SDS011;59072;42.144;25.200;2022-08-14T14:35:07;15.95;;;12.32;;
71148;SDS011;59072;42.144;25.200;2022-08-14T14:37:37;16.10;;;11.85;;
71148;SDS011;59072;42.144;25.200;2022-08-14T14:40:04;15.15;;;11.77;;
71148;SDS011;59072;42.144;25.200;2022-08-14T14:42:30;13.50;;;9.80;;
71148;SDS011;59072;42.144;25.200;2022-08-14T14:45:05;14.43;;;10.43;;
71148;SDS011;59072;42.144;25.200;2022-08-14T14:47:42;11.07;;;9.15;;
71148;SDS011;59072;42.144;25.200;2022-08-14T14:50:09;12.60;;;9.18;;
71148;SDS011;59072;42.144;25.200;2022-08-14T14:52:36;14.38;;;10.00;;
71148;SDS011;59072;42.144;25.200;2022-08-14T14:55:02;10.85;;;8.60;;